Time;durP1;ratioP1;P1;durP2;ratioP2;P2;SDS_P1;SDS_P2;PMS_P1;PMS_P2;Temp;Humidity;BMP_temperature;BMP_pressure;BME280_temperature;BME280_humidity;BME280_pressure;Samples;Min_cycle;Max_cycle;Signal;HPM_P1;HPM_P2
2023/04/23 00:00:26;;;;;;;5.97;4.90;;;7.90;99.90;9.50;96417.00;;;;5101946;28;20218;-70
2023/04/23 00:03:18;;;;;;;5.03;4.13;;;7.90;99.90;9.20;96408.00;;;;5102318;28;20218;-69
2023/04/23 00:06:09;;;;;;;6.20;4.53;;;7.90;99.90;8.50;96395.00;;;;5101512;28;20699;-71
2023/04/23 00:09:02;;;;;;;7.10;4.77;;;7.80;99.90;9.00;96408.00;;;;5101573;28;20228;-71
2023/04/23 00:11:52;;;;;;;5.67;4.57;;;7.70;99.90;9.10;96403.00;;;;5104858;28;20609;-71
2023/04/23 00:14:41;;;;;;;5.57;4.97;;;7.70;99.90;8.90;96400.00;;;;5100423;28;20198;-71
2023/04/23 00:17:31;;;;;;;6.20;5.60;;;7.70;99.90;9.00;96390.00;;;;5100773;28;20226;-70
2023/04/23 00:20:20;;;;;;;4.67;4.27;;;7.70;99.90;8.60;96401.00;;;;5098232;28;20202;-73
2023/04/23 00:23:09;;;;;;;8.43;5.20;;;7.70;99.90;8.50;96391.00;;;;5106650;28;20222;-70
2023/04/23 00:25:58;;;;;;;8.70;5.30;;;7.50;99.90;8.50;96389.00;;;;5101437;28;20194;-71
2023/04/23 00:28:46;;;;;;;4.80;4.30;;;7.50;99.90;8.20;96386.00;;;;5103231;28;20207;-71
2023/04/23 00:31:35;;;;;;;5.90;4.73;;;7.40;99.90;8.50;96381.00;;;;5105815;28;20237;-71
2023/04/23 00:34:26;;;;;;;6.10;5.43;;;7.30;99.90;8.20;96382.00;;;;5105158;28;20205;-72
2023/04/23 00:37:15;;;;;;;5.17;4.73;;;7.30;99.90;8.10;96389.00;;;;5106930;28;20303;-72
2023/04/23 00:40:05;;;;;;;5.90;5.30;;;7.20;99.90;8.00;96374.00;;;;5106885;28;20205;-72
2023/04/23 00:42:55;;;;;;;8.93;4.90;;;7.10;99.90;8.30;96378.00;;;;5104743;27;20218;-70
2023/04/23 00:45:43;;;;;;;6.57;4.83;;;7.10;99.90;8.50;96385.00;;;;5100322;28;20198;-70
2023/04/23 00:48:33;;;;;;;8.97;5.33;;;7.10;99.90;8.70;96384.00;;;;5103207;28;20730;-71
2023/04/23 00:51:24;;;;;;;8.47;5.07;;;7.20;99.90;8.50;96383.00;;;;5104738;28;20627;-67
2023/04/23 00:54:13;;;;;;;5.63;5.07;;;7.30;99.90;8.70;96381.00;;;;5105087;28;20884;-68
2023/04/23 00:57:02;;;;;;;11.40;5.63;;;7.30;99.90;8.90;96381.00;;;;5105447;28;20228;-69
2023/04/23 00:59:50;;;;;;;8.33;5.23;;;7.30;99.90;8.90;96385.00;;;;5099107;28;20295;-69
2023/04/23 01:02:40;;;;;;;5.83;5.13;;;7.40;99.90;9.10;96384.00;;;;5100318;28;20215;-70
2023/04/23 01:05:29;;;;;;;9.20;5.97;;;7.50;99.90;9.00;96398.00;;;;5102588;28;20287;-69
2023/04/23 01:08:21;;;;;;;4.30;3.87;;;7.50;99.90;8.00;96377.00;;;;5101662;28;20191;-71
2023/04/23 01:11:11;;;;;;;6.90;5.97;;;7.40;99.90;7.90;96381.00;;;;5103865;28;20384;-71
2023/04/23 01:14:00;;;;;;;9.40;6.32;;;7.10;99.90;8.40;96383.00;;;;5103212;28;20384;-72
2023/04/23 01:16:49;;;;;;;7.10;5.03;;;7.10;99.90;8.70;96383.00;;;;5095762;28;20589;-72
2023/04/23 01:19:39;;;;;;;7.20;5.40;;;7.20;99.90;8.50;96385.00;;;;5095958;28;20207;-70
2023/04/23 01:22:29;;;;;;;6.63;5.10;;;7.30;99.90;8.10;96383.00;;;;5103031;28;20226;-71
2023/04/23 01:25:18;;;;;;;7.87;5.97;;;7.20;99.90;8.20;96380.00;;;;5105688;28;20212;-69
2023/04/23 01:28:07;;;;;;;8.87;5.63;;;7.20;99.90;8.40;96383.00;;;;5103626;28;20263;-69
2023/04/23 01:30:56;;;;;;;9.70;6.43;;;7.10;99.90;8.00;96381.00;;;;5102534;28;20194;-70
2023/04/23 01:33:46;;;;;;;4.77;4.37;;;7.10;99.90;7.50;96378.00;;;;5102958;28;20589;-73
2023/04/23 01:36:35;;;;;;;7.73;5.07;;;6.80;99.90;7.30;96382.00;;;;5102279;28;20195;-73
2023/04/23 01:39:25;;;;;;;8.43;4.77;;;6.60;99.90;7.20;96383.00;;;;5101323;28;20324;-73
2023/04/23 01:42:14;;;;;;;7.50;6.17;;;6.60;99.90;7.20;96374.00;;;;5102464;28;20231;-69
2023/04/23 01:45:06;;;;;;;8.73;5.77;;;6.50;99.90;7.70;96379.00;;;;5102936;28;20202;-70
2023/04/23 01:47:55;;;;;;;6.50;5.80;;;6.50;99.90;7.80;96376.00;;;;5100569;28;20195;-72
2023/04/23 01:50:44;;;;;;;5.87;5.03;;;6.50;99.90;7.80;96373.00;;;;5102354;28;20210;-68
2023/04/23 01:53:33;;;;;;;11.40;6.77;;;6.60;99.90;8.30;96372.00;;;;5099878;28;20191;-68
2023/04/23 01:56:27;;;;;;;6.17;5.50;;;6.70;99.90;8.50;96380.00;;;;5104721;28;20199;-68
2023/04/23 01:59:16;;;;;;;6.57;5.73;;;6.80;99.90;8.20;96373.00;;;;5097978;28;20582;-68
2023/04/23 02:02:09;;;;;;;6.33;5.70;;;6.80;99.90;8.10;96372.00;;;;5101561;28;20215;-69
2023/04/23 02:05:03;;;;;;;7.07;5.53;;;6.80;99.90;7.70;96363.00;;;;5098805;28;20191;-69
2023/04/23 02:07:52;;;;;;;10.37;5.80;;;6.70;99.90;8.10;96361.00;;;;5103863;28;20206;-70
2023/04/23 02:10:41;;;;;;;8.03;5.80;;;6.70;99.90;8.30;96368.00;;;;5100526;28;20250;-70
2023/04/23 02:13:31;;;;;;;9.83;5.07;;;6.70;99.90;8.10;96365.00;;;;5104653;27;20610;-70
2023/04/23 02:16:19;;;;;;;12.77;6.27;;;6.70;99.90;7.70;96363.00;;;;5100277;27;20251;-69
2023/04/23 02:19:08;;;;;;;8.57;4.83;;;6.70;99.90;7.50;96358.00;;;;5101731;27;20233;-70
2023/04/23 02:21:57;;;;;;;5.67;4.23;;;6.60;99.90;7.40;96362.00;;;;5098003;28;20721;-70
2023/04/23 02:24:46;;;;;;;9.53;5.60;;;6.40;99.90;7.60;96362.00;;;;5103201;28;20244;-70
2023/04/23 02:27:35;;;;;;;5.37;4.60;;;6.40;99.90;7.20;96368.00;;;;5105240;28;20199;-70
2023/04/23 02:30:25;;;;;;;5.77;5.27;;;6.30;99.90;7.20;96359.00;;;;5102538;28;20257;-70
2023/04/23 02:33:14;;;;;;;5.17;4.67;;;6.30;99.90;7.50;96353.00;;;;5104623;28;20222;-70
2023/04/23 02:36:03;;;;;;;9.83;5.63;;;6.20;99.90;7.50;96362.00;;;;5106303;28;20222;-69
2023/04/23 02:38:51;;;;;;;6.07;5.10;;;6.30;99.90;7.50;96361.00;;;;5099770;28;20268;-69
2023/04/23 02:41:40;;;;;;;6.23;5.43;;;6.30;99.90;7.80;96357.00;;;;5102335;28;20215;-69
2023/04/23 02:44:29;;;;;;;7.37;5.40;;;6.30;99.90;7.80;96360.00;;;;5098584;28;20202;-70
2023/04/23 02:47:19;;;;;;;6.13;5.23;;;6.30;99.90;7.30;96357.00;;;;5102546;28;20199;-69
2023/04/23 02:50:08;;;;;;;15.80;5.80;;;6.30;99.90;6.90;96357.00;;;;5094048;28;20245;-71
2023/04/23 02:52:57;;;;;;;5.87;5.03;;;6.10;99.90;7.10;96363.00;;;;5096657;28;20227;-72
2023/04/23 02:55:46;;;;;;;6.23;4.97;;;6.10;99.90;7.10;96360.00;;;;5094244;28;20749;-71
2023/04/23 02:58:35;;;;;;;6.73;5.77;;;6.10;99.90;7.00;96357.00;;;;5103686;28;20355;-72
2023/04/23 03:01:23;;;;;;;6.70;5.33;;;6.00;99.90;7.00;96364.00;;;;5098708;28;20195;-70
2023/04/23 03:04:13;;;;;;;8.93;5.37;;;6.00;99.90;7.30;96373.00;;;;5103501;28;20349;-70
2023/04/23 03:07:02;;;;;;;6.73;5.87;;;6.00;99.90;7.10;96360.00;;;;5101040;28;20257;-71
2023/04/23 03:09:51;;;;;;;6.47;5.77;;;6.10;99.90;7.50;96357.00;;;;5098189;28;20198;-68
2023/04/23 03:12:39;;;;;;;8.00;6.23;;;6.10;99.90;7.70;96356.00;;;;5101327;28;20288;-67
2023/04/23 03:15:29;;;;;;;6.00;5.40;;;6.20;99.90;7.70;96356.00;;;;5100480;28;20207;-68
2023/04/23 03:18:18;;;;;;;8.43;5.70;;;6.30;99.90;7.20;96351.00;;;;5108119;28;20195;-75
2023/04/23 03:21:08;;;;;;;7.87;5.20;;;6.20;99.90;7.00;96348.00;;;;5106360;28;20317;-69
2023/04/23 03:23:56;;;;;;;6.70;5.63;;;6.10;99.90;7.20;96348.00;;;;5107413;28;20194;-67
2023/04/23 03:26:45;;;;;;;6.93;6.23;;;6.10;99.90;7.70;96351.00;;;;5104171;28;20263;-68
2023/04/23 03:29:34;;;;;;;10.47;5.40;;;6.20;99.90;7.80;96355.00;;;;5103486;28;20209;-68
2023/04/23 03:32:23;;;;;;;7.27;6.00;;;6.20;99.90;7.70;96355.00;;;;5100950;28;20741;-68
2023/04/23 03:35:12;;;;;;;8.50;5.17;;;6.30;99.90;7.80;96358.00;;;;5103456;28;20209;-68
2023/04/23 03:38:02;;;;;;;6.37;5.10;;;6.30;99.90;7.90;96356.00;;;;5103199;28;20288;-68
2023/04/23 03:40:51;;;;;;;10.50;5.70;;;6.30;99.90;8.10;96343.00;;;;5103840;28;20629;-68
2023/04/23 03:43:39;;;;;;;6.27;5.67;;;6.40;99.90;8.10;96347.00;;;;5102021;28;20613;-68
2023/04/23 03:46:28;;;;;;;10.00;5.40;;;6.50;99.90;8.20;96344.00;;;;5100290;28;20213;-68
2023/04/23 03:49:17;;;;;;;7.90;5.70;;;6.50;99.90;8.10;96346.00;;;;5103656;28;20195;-68
2023/04/23 03:52:05;;;;;;;7.20;4.90;;;6.60;99.90;8.20;96342.00;;;;5102834;28;20215;-68
2023/04/23 03:54:56;;;;;;;6.43;5.83;;;5.60;99.90;7.90;96343.00;;;;5105568;28;20206;-68
2023/04/23 03:57:44;;;;;;;7.53;5.10;;;6.60;99.90;7.90;96347.00;;;;5101723;28;20280;-68
2023/04/23 04:00:33;;;;;;;5.83;5.33;;;6.60;99.90;7.60;96344.00;;;;5105471;28;20227;-69
2023/04/23 04:03:22;;;;;;;7.80;5.53;;;6.50;99.90;7.50;96343.00;;;;5102040;28;20207;-68
2023/04/23 04:06:11;;;;;;;9.53;5.30;;;6.50;99.90;7.80;96345.00;;;;5104686;28;20721;-69
2023/04/23 04:08:59;;;;;;;5.83;5.07;;;6.40;99.90;7.80;96340.00;;;;5110320;28;20199;-69
2023/04/23 04:11:49;;;;;;;5.47;4.93;;;6.50;99.90;8.10;96335.00;;;;5105275;28;20819;-69
2023/04/23 04:14:39;;;;;;;6.77;6.17;;;6.50;99.90;8.40;96344.00;;;;5105248;28;20676;-69
2023/04/23 04:17:28;;;;;;;9.10;6.67;;;6.60;99.90;8.00;96335.00;;;;5106627;28;20209;-69
2023/04/23 04:20:16;;;;;;;6.70;5.03;;;6.70;99.90;7.80;96342.00;;;;5105346;28;20705;-70
2023/04/23 04:23:05;;;;;;;8.77;4.73;;;6.70;99.90;7.70;96338.00;;;;5103715;28;20606;-70
2023/04/23 04:25:55;;;;;;;6.67;5.73;;;6.60;99.90;7.90;96341.00;;;;5101129;28;20611;-70
2023/04/23 04:28:45;;;;;;;9.30;5.70;;;6.60;99.90;8.00;96338.00;;;;5104680;28;20205;-70
2023/04/23 04:31:34;;;;;;;6.53;5.40;;;6.60;99.90;7.90;96334.00;;;;5108946;28;20215;-70
2023/04/23 04:34:23;;;;;;;8.73;7.07;;;6.60;99.90;7.90;96346.00;;;;5110031;28;20214;-68
2023/04/23 04:37:12;;;;;;;8.37;6.20;;;6.60;99.90;8.10;96340.00;;;;5095897;28;20188;-68
2023/04/23 04:40:01;;;;;;;7.33;5.53;;;6.70;99.90;8.10;96332.00;;;;5106157;28;20804;-68
2023/04/23 04:42:50;;;;;;;7.43;5.20;;;6.70;99.90;8.10;96335.00;;;;5103141;28;20218;-69
2023/04/23 04:45:40;;;;;;;6.13;5.03;;;6.80;99.90;8.20;96337.00;;;;5100114;28;20195;-70
2023/04/23 04:48:28;;;;;;;8.27;5.43;;;6.80;99.90;8.30;96337.00;;;;5108751;28;20191;-67
2023/04/23 04:51:17;;;;;;;8.10;5.03;;;6.30;99.90;8.20;96337.00;;;;5107906;28;20752;-69
2023/04/23 04:54:06;;;;;;;6.67;5.77;;;7.60;99.90;8.40;96339.00;;;;5104100;28;20208;-70
2023/04/23 04:56:55;;;;;;;6.07;4.93;;;7.00;99.90;8.50;96335.00;;;;5106585;28;20228;-70
2023/04/23 04:59:44;;;;;;;8.87;5.70;;;7.10;99.90;8.50;96333.00;;;;5108381;28;20226;-70
2023/04/23 05:02:34;;;;;;;6.83;5.90;;;7.10;99.90;8.90;96340.00;;;;5103324;28;20272;-71
2023/04/23 05:05:25;;;;;;;7.20;5.10;;;7.20;99.90;9.00;96344.00;;;;5107325;28;20199;-70
2023/04/23 05:08:15;;;;;;;9.77;6.33;;;7.40;99.90;9.10;96336.00;;;;5107738;28;20686;-68
2023/04/23 05:11:04;;;;;;;8.23;5.73;;;7.50;99.90;8.90;96331.00;;;;5107360;28;20202;-71
2023/04/23 05:13:53;;;;;;;5.33;4.83;;;7.50;99.90;9.10;96333.00;;;;5104616;28;20199;-71
2023/04/23 05:16:41;;;;;;;5.93;4.80;;;7.60;99.90;9.10;96339.00;;;;5108619;28;20194;-71
2023/04/23 05:19:32;;;;;;;6.57;5.23;;;7.60;99.90;9.10;96329.00;;;;5108143;28;20226;-71
2023/04/23 05:22:21;;;;;;;15.37;5.57;;;7.70;99.90;9.00;96334.00;;;;5106030;28;20222;-70
2023/04/23 05:25:11;;;;;;;6.90;5.90;;;7.80;99.90;9.20;96333.00;;;;5108000;28;20206;-72
2023/04/23 05:28:00;;;;;;;8.70;4.97;;;7.80;99.90;9.60;96329.00;;;;5106431;28;20198;-72
2023/04/23 05:30:49;;;;;;;8.20;4.73;;;8.00;99.90;9.80;96333.00;;;;5107757;27;20695;-71
2023/04/23 05:33:39;;;;;;;6.07;5.53;;;8.10;99.90;10.00;96325.00;;;;5084559;27;21738;-71
2023/04/23 05:36:35;;;;;;;9.73;6.00;;;8.20;99.90;10.10;96332.00;;;;5107777;27;20724;-68
2023/04/23 05:39:24;;;;;;;6.30;5.70;;;8.40;99.90;9.90;96330.00;;;;5099719;27;20198;-67
2023/04/23 05:42:13;;;;;;;9.17;5.93;;;8.40;99.90;9.90;96324.00;;;;5107511;27;20232;-72
2023/04/23 05:45:03;;;;;;;13.50;5.73;;;8.60;99.90;10.20;96321.00;;;;5111647;27;20199;-68
2023/04/23 05:47:53;;;;;;;5.17;4.70;;;8.70;99.90;10.20;96321.00;;;;5106258;27;20225;-75
2023/04/23 05:50:41;;;;;;;9.77;6.53;;;8.80;99.90;10.40;96326.00;;;;5110775;27;20203;-71
2023/04/23 05:53:31;;;;;;;6.33;5.73;;;9.00;99.90;11.00;96329.00;;;;5107070;28;20272;-72
2023/04/23 05:56:20;;;;;;;8.20;7.00;;;9.20;99.90;11.20;96338.00;;;;5106729;27;20210;-68
2023/04/23 05:59:09;;;;;;;7.80;6.53;;;9.40;99.90;11.20;96333.00;;;;5097994;28;20234;-67
2023/04/23 06:01:58;;;;;;;9.67;6.57;;;9.60;99.90;11.20;96337.00;;;;5106065;27;20250;-71
2023/04/23 06:04:47;;;;;;;10.60;6.73;;;9.70;99.90;11.30;96335.00;;;;5114661;27;20197;-67
2023/04/23 06:07:36;;;;;;;8.00;6.53;;;9.70;99.90;11.40;96336.00;;;;5094200;28;20202;-68
2023/04/23 06:10:26;;;;;;;8.53;5.83;;;;;11.20;96337.00;;;;5096824;28;20815;-75
2023/04/23 06:13:15;;;;;;;9.07;6.13;;;;;11.60;96336.00;;;;5102394;28;20210;-69
2023/04/23 06:16:04;;;;;;;6.17;5.57;;;;;11.90;96348.00;;;;5084561;28;20203;-74
2023/04/23 06:18:55;;;;;;;11.63;6.30;;;;;11.90;96336.00;;;;5081244;27;20202;-68
2023/04/23 06:21:44;;;;;;;6.73;5.90;;;;;12.10;96335.00;;;;5083733;27;20234;-73
2023/04/23 06:24:33;;;;;;;6.53;5.70;;;;;12.50;96339.00;;;;5080901;28;20207;-71
2023/04/23 06:27:23;;;;;;;7.00;6.30;;;;;13.00;96347.00;;;;5081965;27;20215;-69
2023/04/23 06:30:13;;;;;;;8.40;5.43;;;;;13.30;96348.00;;;;5080366;28;20195;-76
2023/04/23 06:33:03;;;;;;;8.43;5.63;;;;;13.80;96347.00;;;;5078616;28;20225;-71
2023/04/23 06:35:51;;;;;;;11.27;5.83;;;;;14.20;96345.00;;;;5082160;28;20208;-73
2023/04/23 06:38:41;;;;;;;7.97;5.87;;;;;14.60;96356.00;;;;5083648;28;20830;-73
2023/04/23 06:41:30;;;;;;;8.33;5.23;;;;;14.80;96346.00;;;;5082129;27;20231;-73
2023/04/23 06:44:20;;;;;;;8.37;5.80;;;12.70;99.90;15.30;96348.00;;;;5091209;27;20676;-72
2023/04/23 06:47:09;;;;;;;7.30;6.17;;;12.90;99.90;15.10;96346.00;;;;5107309;27;20203;-73
2023/04/23 06:49:58;;;;;;;9.60;6.40;;;13.00;99.90;15.30;96346.00;;;;5114175;27;20194;-72
2023/04/23 06:52:47;;;;;;;5.40;4.90;;;13.20;99.90;15.40;96343.00;;;;5112610;27;20744;-72
2023/04/23 06:55:36;;;;;;;9.17;5.10;;;13.30;99.90;16.00;96345.00;;;;5106956;27;20199;-72
2023/04/23 06:58:30;;;;;;;9.10;5.53;;;13.50;99.90;16.10;96338.00;;;;5108117;27;20194;-74
2023/04/23 07:01:21;;;;;;;8.77;5.37;;;13.70;99.90;16.30;96332.00;;;;5108058;28;20230;-73
2023/04/23 07:04:10;;;;;;;8.20;5.47;;;13.90;99.90;16.60;96333.00;;;;5113314;27;20201;-73
2023/04/23 07:06:59;;;;;;;5.87;5.27;;;14.10;99.90;16.30;96324.00;;;;5112775;28;20198;-75
2023/04/23 07:09:47;;;;;;;6.80;5.00;;;14.20;99.90;16.50;96322.00;;;;5114388;28;20223;-75
2023/04/23 07:12:37;;;;;;;5.57;4.47;;;14.30;99.90;16.70;96318.00;;;;5106513;28;20222;-72
2023/04/23 07:15:25;;;;;;;8.43;5.33;;;14.50;99.90;17.00;96317.00;;;;5111045;27;20201;-72
2023/04/23 07:18:16;;;;;;;6.43;4.53;;;14.60;99.90;17.10;96324.00;;;;5099175;28;20194;-74
2023/04/23 07:21:05;;;;;;;8.60;5.20;;;14.80;99.90;17.10;96320.00;;;;5094560;28;20237;-69
2023/04/23 07:23:54;;;;;;;10.13;5.57;;;14.90;99.90;17.30;96317.00;;;;5098083;28;20248;-76
2023/04/23 07:26:43;;;;;;;8.47;5.57;;;15.00;99.90;17.50;96323.00;;;;5102507;27;20210;-73
2023/04/23 07:29:31;;;;;;;5.70;4.95;;;15.20;99.90;17.50;96324.00;;;;5108335;28;20389;-72
2023/04/23 07:32:22;;;;;;;7.28;5.30;;;15.30;99.90;17.60;96318.00;;;;5101975;28;20388;-72
2023/04/23 07:35:12;;;;;;;9.67;6.47;;;15.40;99.90;18.00;96314.00;;;;5101887;28;20562;-72
2023/04/23 07:38:01;;;;;;;7.47;5.27;;;15.60;99.90;18.20;96314.00;;;;5106344;28;20209;-72
2023/04/23 07:40:50;;;;;;;6.73;4.60;;;15.70;99.90;18.70;96317.00;;;;5100199;28;20222;-72
2023/04/23 07:43:40;;;;;;;8.87;5.60;;;15.90;99.90;18.80;96314.00;;;;5101771;28;20252;-72
2023/04/23 07:46:29;;;;;;;7.00;5.27;;;16.20;99.90;19.00;96308.00;;;;5105856;28;20214;-72
2023/04/23 07:49:17;;;;;;;5.60;5.10;;;16.30;99.90;19.00;96312.00;;;;5106460;28;20199;-72
2023/04/23 07:52:07;;;;;;;5.47;4.37;;;16.50;99.90;19.10;96307.00;;;;5107195;28;20270;-72
2023/04/23 07:54:56;;;;;;;5.37;4.13;;;16.60;99.90;19.50;96308.00;;;;5099064;28;20573;-72
2023/04/23 07:57:45;;;;;;;4.70;4.13;;;16.80;99.90;19.70;96309.00;;;;5107706;28;20286;-71
2023/04/23 08:00:33;;;;;;;7.47;4.77;;;17.10;99.90;19.90;96311.00;;;;5111365;28;20203;-72
2023/04/23 08:03:24;;;;;;;7.10;4.43;;;17.20;99.90;19.70;96305.00;;;;5103445;28;20275;-71
2023/04/23 08:06:12;;;;;;;7.43;4.00;;;17.40;99.90;19.30;96300.00;;;;5102757;27;20195;-73
2023/04/23 08:09:05;;;;;;;5.43;3.87;;;17.40;99.90;19.90;96311.00;;;;5103124;28;20620;-73
2023/04/23 08:11:54;;;;;;;5.67;4.23;;;17.50;99.90;20.20;96306.00;;;;5104116;28;20229;-73
2023/04/23 08:14:43;;;;;;;5.00;4.50;;;17.70;99.90;19.90;96298.00;;;;5102351;28;20571;-73
2023/04/23 08:17:31;;;;;;;4.67;4.27;;;17.80;99.90;20.30;96305.00;;;;5106865;28;20214;-73
2023/04/23 08:20:20;;;;;;;4.13;3.73;;;17.80;99.90;20.70;96301.00;;;;5103814;27;20211;-73
2023/04/23 08:23:09;;;;;;;5.50;4.47;;;18.00;99.90;20.60;96303.00;;;;5104515;28;20362;-73
2023/04/23 08:25:59;;;;;;;6.73;4.17;;;18.10;99.90;20.60;96302.00;;;;5107422;28;20722;-73
2023/04/23 08:28:48;;;;;;;6.27;5.20;;;18.20;99.90;20.50;96313.00;;;;5105936;28;20210;-73
2023/04/23 08:31:37;;;;;;;6.23;4.93;;;18.20;99.90;20.50;96315.00;;;;5108141;28;20218;-72
2023/04/23 08:34:26;;;;;;;5.67;5.03;;;18.20;99.90;20.20;96293.00;;;;5106337;28;20572;-73
2023/04/23 08:37:14;;;;;;;4.63;3.67;;;18.10;99.90;20.90;96297.00;;;;5100007;28;20207;-73
2023/04/23 08:40:09;;;;;;;6.27;4.83;;;18.20;99.90;21.10;96290.00;;;;5105919;28;20198;-73
2023/04/23 08:43:03;;;;;;;5.93;4.07;;;18.40;99.90;21.50;96296.00;;;;5105166;28;20225;-72
2023/04/23 08:45:53;;;;;;;6.17;3.77;;;18.60;99.90;21.70;96300.00;;;;5105213;28;20227;-73
2023/04/23 08:48:42;;;;;;;7.10;4.00;;;18.90;99.90;21.80;96293.00;;;;5107340;28;20208;-73
2023/04/23 08:51:32;;;;;;;5.37;4.17;;;19.10;98.80;21.90;96293.00;;;;5106838;28;20219;-73
2023/04/23 08:54:26;;;;;;;4.47;3.30;;;19.20;97.80;22.00;96295.00;;;;5105902;28;20723;-71
2023/04/23 08:57:17;;;;;;;4.33;3.93;;;19.40;97.00;22.00;96290.00;;;;5109181;28;20283;-70
2023/04/23 09:00:10;;;;;;;10.87;4.47;;;19.50;96.20;22.30;96284.00;;;;5106863;28;20199;-71
2023/04/23 09:02:59;;;;;;;7.80;3.60;;;19.60;96.40;22.40;96291.00;;;;5102140;28;20223;-71
2023/04/23 09:05:49;;;;;;;9.67;3.80;;;19.80;96.00;22.00;96285.00;;;;5109811;28;20199;-71
2023/04/23 09:08:38;;;;;;;10.63;4.30;;;19.80;93.70;22.10;96280.00;;;;5108311;28;20191;-71
2023/04/23 09:11:28;;;;;;;4.53;4.13;;;19.90;94.20;22.70;96282.00;;;;5105675;28;20214;-70
2023/04/23 09:14:17;;;;;;;5.20;4.13;;;20.00;93.80;22.60;96284.00;;;;5102457;28;20827;-71
2023/04/23 09:17:07;;;;;;;6.03;4.30;;;20.20;94.20;22.60;96290.00;;;;5104943;28;20259;-71
2023/04/23 09:19:56;;;;;;;5.97;4.37;;;20.40;93.70;22.70;96286.00;;;;5106048;28;20189;-71
2023/04/23 09:22:47;;;;;;;5.83;4.13;;;20.50;93.40;23.10;96279.00;;;;5099874;28;20231;-71
2023/04/23 09:25:36;;;;;;;5.83;4.50;;;20.60;92.20;22.40;96288.00;;;;5102604;28;20239;-72
2023/04/23 09:28:35;;;;;;;6.73;4.13;;;20.70;92.20;23.40;96287.00;;;;5102041;28;20211;-73
2023/04/23 09:31:24;;;;;;;6.13;4.97;;;20.70;92.10;23.80;96284.00;;;;5107384;27;20208;-72
2023/04/23 09:34:16;;;;;;;4.70;3.37;;;21.00;92.50;22.90;96279.00;;;;5110284;27;20194;-72
2023/04/23 09:37:09;;;;;;;4.33;3.93;;;21.10;90.40;22.80;96275.00;;;;5112038;27;20825;-73
2023/04/23 09:40:03;;;;;;;8.93;4.37;;;21.20;90.70;23.50;96278.00;;;;5103689;28;20194;-73
2023/04/23 09:42:53;;;;;;;4.80;3.77;;;21.20;90.60;22.90;96274.00;;;;5102829;28;20237;-72
2023/04/23 09:45:49;;;;;;;6.13;3.83;;;21.20;90.20;23.20;96282.00;;;;5102639;28;20909;-71
2023/04/23 09:48:41;;;;;;;7.30;4.33;;;21.10;89.50;23.00;96270.00;;;;5098998;28;20198;-71
2023/04/23 09:51:32;;;;;;;5.17;4.47;;;21.10;90.30;23.00;96266.00;;;;5108655;27;20735;-71
2023/04/23 09:54:24;;;;;;;5.67;4.00;;;21.10;90.60;23.40;96267.00;;;;5105810;27;20658;-71
2023/04/23 09:57:13;;;;;;;4.50;4.10;;;21.10;90.80;23.60;96256.00;;;;5099840;27;20255;-71
2023/04/23 10:00:15;;;;;;;6.23;4.40;;;21.20;90.70;23.60;96255.00;;;;5109203;27;20775;-71
2023/04/23 10:03:06;;;;;;;5.00;4.47;;;21.30;90.10;24.10;96260.00;;;;5103691;27;20222;-72
2023/04/23 10:05:56;;;;;;;5.17;4.60;;;21.40;89.00;24.40;96249.00;;;;5103343;28;20198;-72
2023/04/23 10:08:49;;;;;;;3.83;3.53;;;21.60;87.10;23.50;96245.00;;;;5090610;28;20666;-71
2023/04/23 10:11:38;;;;;;;4.67;4.10;;;21.60;86.30;22.40;96232.00;;;;5101827;28;20218;-73
2023/04/23 10:14:28;;;;;;;4.30;3.80;;;21.70;83.60;22.90;96236.00;;;;5105392;28;20677;-72
2023/04/23 10:17:17;;;;;;;3.87;3.53;;;21.50;84.90;23.20;96238.00;;;;5102489;27;20697;-71
2023/04/23 10:20:09;;;;;;;4.30;3.90;;;21.50;84.80;23.80;96232.00;;;;5102209;28;20194;-71
2023/04/23 10:22:59;;;;;;;7.07;4.30;;;21.70;85.60;23.60;96233.00;;;;5103197;28;20222;-71
2023/04/23 10:25:50;;;;;;;4.47;4.03;;;21.80;82.30;24.30;96228.00;;;;5097618;28;20202;-69
2023/04/23 10:28:40;;;;;;;5.27;3.70;;;22.00;84.60;24.90;96217.00;;;;5107012;28;20336;-71
2023/04/23 10:31:32;;;;;;;4.50;3.70;;;22.10;82.10;26.00;96232.00;;;;5105563;28;20229;-71
2023/04/23 10:34:21;;;;;;;9.27;3.73;;;22.50;84.60;24.50;96230.00;;;;5100880;28;20775;-73
2023/04/23 10:37:10;;;;;;;5.20;3.90;;;22.60;80.30;24.20;96209.00;;;;5102431;28;20207;-73
2023/04/23 10:40:08;;;;;;;5.43;3.77;;;22.60;80.30;25.10;96201.00;;;;5096184;28;20206;-71
2023/04/23 10:42:58;;;;;;;5.77;3.53;;;22.60;79.80;24.50;96211.00;;;;5100528;28;20215;-72
2023/04/23 10:45:49;;;;;;;5.40;3.70;;;22.60;80.90;24.70;96208.00;;;;5087072;27;20191;-72
2023/04/23 10:49:06;;;;;;;4.70;3.73;;;22.70;78.90;24.30;96202.00;;;;5087807;28;20602;-71
2023/04/23 10:52:01;;;;;;;5.97;3.93;;;22.50;77.10;25.80;96206.00;;;;5089002;27;20223;-70
2023/04/23 10:54:58;;;;;;;9.30;4.80;;;22.20;77.20;26.10;96210.00;;;;5079027;28;22544;-70
2023/04/23 10:58:00;;;;;;;5.53;3.57;;;23.00;77.40;24.70;96201.00;;;;5080362;27;20583;-71
2023/04/23 11:00:51;;;;;;;3.03;2.73;;;23.00;72.30;25.60;96201.00;;;;5089220;27;20221;-71
2023/04/23 11:03:41;;;;;;;6.27;3.30;;;23.10;73.20;23.30;96205.00;;;;5083095;27;20219;-72
2023/04/23 11:06:52;;;;;;;3.50;3.03;;;22.80;69.60;25.30;96205.00;;;;5081819;28;20344;-72
2023/04/23 11:09:43;;;;;;;3.00;2.80;;;22.80;71.40;25.90;96200.00;;;;5081073;28;20198;-69
2023/04/23 11:12:33;;;;;;;3.03;2.73;;;22.90;71.30;25.70;96192.00;;;;5086224;28;20383;-71
2023/04/23 11:15:24;;;;;;;3.27;2.80;;;23.00;70.50;26.30;96196.00;;;;5085667;28;20702;-70
2023/04/23 11:18:13;;;;;;;3.77;2.97;;;23.20;72.40;26.40;96197.00;;;;5084425;28;21099;-71
2023/04/23 11:21:05;;;;;;;6.57;2.80;;;23.40;72.50;25.70;96199.00;;;;5082538;28;20208;-71
2023/04/23 11:23:53;;;;;;;3.20;2.73;;;23.50;68.20;26.60;96200.00;;;;5084914;28;20227;-69
2023/04/23 11:26:44;;;;;;;5.63;2.63;;;23.70;69.60;26.40;96203.00;;;;5092311;28;20197;-70
2023/04/23 11:29:33;;;;;;;2.60;2.40;;;23.80;69.40;26.50;96197.00;;;;5099767;28;20285;-70
2023/04/23 11:32:23;;;;;;;3.57;2.73;;;23.80;68.50;26.90;96181.00;;;;5100991;28;20216;-70
2023/04/23 11:35:14;;;;;;;3.03;1.73;;;24.00;68.60;27.00;96195.00;;;;5097728;28;20210;-70
2023/04/23 11:38:09;;;;;;;2.33;2.13;;;24.20;64.70;25.80;96182.00;;;;5093997;28;20305;-72
2023/04/23 11:40:58;;;;;;;2.10;1.87;;;24.10;60.60;26.10;96193.00;;;;5107950;28;20206;-71
2023/04/23 11:43:47;;;;;;;2.80;2.43;;;24.10;62.40;25.80;96192.00;;;;5108148;28;20223;-69
2023/04/23 11:46:36;;;;;;;4.03;3.17;;;24.00;65.90;25.80;96187.00;;;;5102657;28;20260;-71
2023/04/23 11:49:27;;;;;;;4.87;2.53;;;23.90;67.00;26.40;96187.00;;;;5110092;28;20688;-70
2023/04/23 11:52:16;;;;;;;4.27;3.17;;;23.80;66.40;25.00;96178.00;;;;5104039;28;20221;-71
2023/04/23 11:55:07;;;;;;;3.13;2.93;;;23.80;68.60;24.20;96167.00;;;;5109831;28;20689;-75
2023/04/23 11:57:57;;;;;;;4.20;3.03;;;23.50;64.40;24.90;96183.00;;;;5106413;28;20207;-70
2023/04/23 12:00:47;;;;;;;3.73;3.00;;;23.00;67.90;25.60;96178.00;;;;5108153;28;20295;-72
2023/04/23 12:03:36;;;;;;;3.83;3.23;;;23.10;67.50;25.00;96178.00;;;;5107165;27;20222;-70
2023/04/23 12:06:27;;;;;;;3.80;3.23;;;23.10;67.20;24.90;96169.00;;;;5110514;27;20547;-72
2023/04/23 12:09:18;;;;;;;4.40;3.10;;;23.00;66.80;25.50;96176.00;;;;5114790;27;20267;-70
2023/04/23 12:12:07;;;;;;;6.13;3.37;;;23.10;68.00;24.70;96168.00;;;;5113960;27;20211;-74
2023/04/23 12:15:05;;;;;;;3.47;3.17;;;23.10;68.40;25.00;96158.00;;;;5105623;28;20202;-73
2023/04/23 12:18:09;;;;;;;3.37;3.07;;;23.20;66.90;25.10;96153.00;;;;5098015;28;20681;-72
2023/04/23 12:21:06;;;;;;;5.83;2.87;;;23.40;67.20;27.20;96144.00;;;;5100658;28;20591;-72
2023/04/23 12:23:58;;;;;;;4.23;3.30;;;23.80;68.50;26.10;96131.00;;;;5099626;28;20229;-69
2023/04/23 12:26:53;;;;;;;4.47;2.73;;;;;27.90;96147.00;;;;5101366;28;20195;-71
2023/04/23 12:29:42;;;;;;;3.93;2.43;;;;;28.30;96145.00;;;;5097371;28;20748;-71
2023/04/23 12:32:32;;;;;;;2.97;2.70;;;;;25.50;96157.00;;;;5096128;28;20224;-67
2023/04/23 12:35:21;;;;;;;3.97;3.57;;;;;25.80;96145.00;;;;5094646;28;20563;-76
2023/04/23 12:38:23;;;;;;;5.03;3.77;;;;;27.00;96145.00;;;;5104525;28;20209;-76
2023/04/23 12:41:13;;;;;;;3.40;3.10;;;;;27.00;96133.00;;;;5111579;27;20660;-73
2023/04/23 12:44:02;;;;;;;3.17;2.87;;;;;27.80;96130.00;;;;5105927;27;20227;-71
2023/04/23 12:46:55;;;;;;;3.43;2.97;;;;;28.50;96122.00;;;;5097326;27;20198;-74
2023/04/23 12:49:45;;;;;;;2.90;2.67;;;;;27.10;96149.00;;;;5099829;28;20215;-73